Time;durP1;ratioP1;P1;durP2;ratioP2;P2;SDS_P1;SDS_P2;PMS_P1;PMS_P2;Temp;Humidity;BMP_temperature;BMP_pressure;BME280_temperature;BME280_humidity;BME280_pressure;Samples;Min_cycle;Max_cycle;Signal;HPM_P1;HPM_P2
2021/06/16 00:00:22;;;;;;;2.20;2.10;;;;;;;27.95;39.53;99099.22;1721308;81;21185;-47
2021/06/16 00:02:48;;;;;;;2.70;2.50;;;;;;;27.90;39.69;99102.41;1727323;81;21106;-45
2021/06/16 00:05:26;;;;;;;2.72;2.52;;;;;;;27.85;40.04;99106.16;1723575;81;21594;-47
2021/06/16 00:07:52;;;;;;;2.55;2.33;;;;;;;27.75;40.15;99113.11;1743914;81;21055;-47
2021/06/16 00:10:29;;;;;;;2.50;2.40;;;;;;;27.76;40.12;99112.62;1750489;81;21039;-46
2021/06/16 00:12:57;;;;;;;2.80;2.60;;;;;;;27.80;40.18;99117.48;1723048;81;21023;-46
2021/06/16 00:15:34;;;;;;;2.60;2.30;;;;;;;27.86;40.17;99123.23;1754785;81;21057;-47
2021/06/16 00:18:01;;;;;;;2.70;2.45;;;;;;;27.87;40.28;99123.55;1755769;81;21110;-47
2021/06/16 00:20:28;;;;;;;2.80;2.60;;;;;;;27.89;40.35;99123.73;1752939;81;21046;-47
2021/06/16 00:22:55;;;;;;;2.50;2.40;;;;;;;27.93;40.34;99126.95;1708189;81;21074;-46
2021/06/16 00:25:23;;;;;;;3.52;2.40;;;;;;;27.95;40.51;99118.98;1748612;81;21053;-46
2021/06/16 00:27:51;;;;;;;2.95;2.70;;;;;;;27.95;40.61;99125.74;1745624;81;21042;-46
2021/06/16 00:30:18;;;;;;;2.77;2.58;;;;;;;27.95;40.67;99122.20;1738503;81;21133;-47
2021/06/16 00:32:45;;;;;;;3.25;2.90;;;;;;;27.94;40.86;99113.75;1755853;81;21509;-45
2021/06/16 00:35:17;;;;;;;3.52;2.72;;;;;;;27.90;40.94;99125.39;1716558;81;20991;-45
2021/06/16 00:37:42;;;;;;;2.80;2.60;;;;;;;27.89;40.98;99112.05;1750720;81;21003;-47
2021/06/16 00:40:13;;;;;;;3.58;2.80;;;;;;;27.88;41.03;99113.92;1753152;81;21038;-47
2021/06/16 00:42:39;;;;;;;3.10;2.83;;;;;;;27.88;41.05;99117.14;1756665;81;21856;-47
2021/06/16 00:45:08;;;;;;;2.70;2.50;;;;;;;27.89;41.05;99107.51;1726057;81;21042;-45
2021/06/16 00:47:35;;;;;;;4.53;2.50;;;;;;;27.91;41.05;99115.45;1723413;81;21078;-47
2021/06/16 00:50:04;;;;;;;3.17;2.98;;;;;;;27.90;41.28;99123.21;1752097;81;21065;-45
2021/06/16 00:52:30;;;;;;;4.55;3.05;;;;;;;27.69;41.77;99128.69;1752361;81;21085;-47
2021/06/16 00:54:57;;;;;;;4.50;3.20;;;;;;;27.29;42.67;99137.20;1738314;81;21152;-45
2021/06/16 00:57:24;;;;;;;3.10;2.90;;;;;;;26.81;43.82;99136.14;1737141;81;21234;-46
2021/06/16 01:00:09;;;;;;;3.30;2.95;;;;;;;26.37;44.65;99135.84;1756434;81;21433;-47
2021/06/16 01:03:04;;;;;;;3.92;3.33;;;;;;;26.27;45.05;99129.23;1743673;81;21017;-44
2021/06/16 01:05:43;;;;;;;3.13;2.93;;;;;;;26.38;45.07;99133.98;1704132;81;21545;-47
2021/06/16 01:08:12;;;;;;;3.20;3.00;;;;;;;26.45;44.87;99132.34;1730018;81;21066;-45
2021/06/16 01:10:41;;;;;;;4.60;3.67;;;;;;;26.56;44.80;99129.82;1722704;81;21470;-45
2021/06/16 01:13:32;;;;;;;3.75;3.50;;;;;;;26.59;44.72;99123.58;1728875;81;21082;-43
2021/06/16 01:16:11;;;;;;;4.35;3.85;;;;;;;26.72;44.54;99120.95;1736588;81;21141;-42
2021/06/16 01:18:46;;;;;;;7.28;3.62;;;;;;;26.86;44.29;99122.98;1724358;81;21031;-45
2021/06/16 01:21:16;;;;;;;4.17;3.60;;;;;;;26.99;44.00;99116.58;1748193;81;21117;-43
2021/06/16 01:24:07;;;;;;;3.67;3.37;;;;;;;27.06;43.82;99125.67;1745119;81;21054;-45
2021/06/16 01:26:43;;;;;;;9.10;3.20;;;;;;;27.18;43.60;99125.34;1720884;81;21111;-41
2021/06/16 01:29:19;;;;;;;3.47;3.02;;;;;;;27.01;43.62;99122.64;1744002;81;21085;-45
2021/06/16 01:31:49;;;;;;;3.30;3.02;;;;;;;26.75;44.17;99130.05;1735031;81;21047;-45
2021/06/16 01:34:18;;;;;;;6.10;3.30;;;;;;;26.47;44.74;99135.19;1745052;81;21163;-45
2021/06/16 01:36:45;;;;;;;10.25;3.20;;;;;;;26.18;45.36;99128.88;1743832;81;20975;-46
2021/06/16 01:39:13;;;;;;;6.47;3.08;;;;;;;25.89;45.96;99127.38;1721326;81;21046;-42
2021/06/16 01:41:42;;;;;;;5.90;3.40;;;;;;;25.73;46.41;99129.98;1739401;81;21040;-45
2021/06/16 01:44:10;;;;;;;2.87;2.65;;;;;;;25.59;46.68;99139.00;1742769;81;21034;-42
2021/06/16 01:46:36;;;;;;;7.87;3.05;;;;;;;25.50;46.88;99150.74;1711405;81;21821;-46
2021/06/16 01:49:03;;;;;;;3.98;2.80;;;;;;;25.49;46.92;99157.13;1734128;81;21035;-46
2021/06/16 01:51:29;;;;;;;3.15;2.92;;;;;;;25.55;46.81;99167.27;1735053;81;21117;-45
2021/06/16 01:53:56;;;;;;;5.78;3.60;;;;;;;25.63;46.59;99173.20;1690510;81;21000;-44
2021/06/16 01:56:23;;;;;;;3.30;3.00;;;;;;;25.72;46.45;99175.44;1739684;81;21126;-45
2021/06/16 01:58:50;;;;;;;3.27;2.92;;;;;;;25.79;46.24;99175.17;1743214;81;21132;-45
2021/06/16 02:01:18;;;;;;;3.42;3.20;;;;;;;25.87;46.08;99168.48;1736869;81;21035;-45
2021/06/16 02:03:45;;;;;;;4.55;3.20;;;;;;;25.93;45.96;99169.17;1734413;81;20958;-46
2021/06/16 02:06:14;;;;;;;3.00;2.52;;;;;;;25.97;45.82;99166.19;1744403;81;21567;-46
2021/06/16 02:08:41;;;;;;;7.20;3.10;;;;;;;25.94;45.67;99166.83;1739179;81;21551;-45
2021/06/16 02:11:07;;;;;;;3.17;2.90;;;;;;;25.91;45.74;99173.88;1743389;81;21746;-45
2021/06/16 02:13:45;;;;;;;4.83;2.75;;;;;;;25.91;45.69;99177.92;1718958;81;21083;-43
2021/06/16 02:16:15;;;;;;;4.62;3.00;;;;;;;25.92;45.71;99184.16;1717449;81;21599;-43
2021/06/16 02:18:52;;;;;;;2.98;2.77;;;;;;;25.92;45.63;99172.89;1735001;81;21055;-44
2021/06/16 02:21:19;;;;;;;6.00;2.50;;;;;;;25.96;45.47;99170.75;1734187;81;21007;-46
2021/06/16 02:23:46;;;;;;;3.75;2.98;;;;;;;25.97;45.41;99172.92;1694439;81;21021;-44
2021/06/16 02:26:14;;;;;;;3.65;2.77;;;;;;;25.97;45.43;99176.97;1713415;81;21532;-43
2021/06/16 02:28:42;;;;;;;4.85;3.02;;;;;;;25.99;45.35;99174.95;1734126;81;21054;-47
2021/06/16 02:31:10;;;;;;;5.03;2.70;;;;;;;26.00;45.31;99177.49;1735341;81;21537;-47
2021/06/16 02:33:37;;;;;;;6.55;3.08;;;;;;;26.00;45.27;99178.00;1742781;81;21231;-46
2021/06/16 02:36:04;;;;;;;4.00;2.60;;;;;;;25.99;45.21;99192.48;1739566;81;22254;-45
2021/06/16 02:38:32;;;;;;;6.78;3.25;;;;;;;25.98;45.22;99194.84;1744905;81;21020;-46
2021/06/16 02:41:01;;;;;;;3.62;2.98;;;;;;;25.95;45.17;99194.14;1722697;81;21071;-47
2021/06/16 02:43:29;;;;;;;5.00;2.72;;;;;;;25.90;45.27;99192.39;1740002;81;21066;-46
2021/06/16 02:45:56;;;;;;;4.37;2.90;;;;;;;25.89;45.31;99193.42;1739395;81;21086;-46
2021/06/16 02:48:22;;;;;;;3.72;2.92;;;;;;;25.88;45.10;99191.72;1741095;81;22192;-44
2021/06/16 02:50:50;;;;;;;2.92;2.62;;;;;;;25.82;45.32;99194.20;1724150;81;21075;-43
2021/06/16 02:53:19;;;;;;;3.35;2.95;;;;;;;25.83;45.34;99198.09;1740563;81;21099;-46
2021/06/16 02:55:52;;;;;;;3.08;2.75;;;;;;;25.85;45.07;99189.33;1731738;81;21141;-46
2021/06/16 02:58:19;;;;;;;3.72;3.27;;;;;;;25.84;45.02;99194.40;1739369;81;21038;-47
2021/06/16 03:00:47;;;;;;;3.00;2.77;;;;;;;25.78;45.05;99197.72;1737810;81;21214;-46
2021/06/16 03:03:14;;;;;;;3.20;2.87;;;;;;;25.73;44.99;99192.80;1717382;82;21057;-46
2021/06/16 03:05:41;;;;;;;2.92;2.72;;;;;;;25.68;44.99;99191.59;1741127;81;21616;-46
2021/06/16 03:08:09;;;;;;;3.15;2.83;;;;;;;25.58;45.12;99189.83;1738675;81;21022;-47
2021/06/16 03:10:36;;;;;;;3.00;2.80;;;;;;;25.51;45.22;99186.09;1745322;81;21057;-46
2021/06/16 03:13:04;;;;;;;3.20;2.95;;;;;;;25.46;45.35;99185.71;1700582;81;21934;-45
2021/06/16 03:15:30;;;;;;;4.95;3.00;;;;;;;25.46;45.44;99180.84;1738927;81;21110;-46
2021/06/16 03:17:59;;;;;;;3.40;2.90;;;;;;;25.46;45.43;99178.98;1745699;81;21163;-47
2021/06/16 03:20:28;;;;;;;5.03;3.10;;;;;;;25.44;45.47;99185.03;1688176;83;21054;-45
2021/06/16 03:22:55;;;;;;;3.90;3.50;;;;;;;25.40;45.61;99185.84;1752899;81;21540;-46
2021/06/16 03:25:22;;;;;;;6.15;2.95;;;;;;;25.43;45.59;99184.67;1752102;81;21772;-47
2021/06/16 03:27:50;;;;;;;3.22;2.92;;;;;;;25.43;45.63;99181.98;1749540;81;21085;-44
2021/06/16 03:30:22;;;;;;;3.27;2.98;;;;;;;25.47;45.54;99183.85;1725167;81;21133;-43
2021/06/16 03:32:51;;;;;;;4.80;2.90;;;;;;;25.44;45.53;99185.03;1747273;81;21616;-46
2021/06/16 03:35:18;;;;;;;5.03;3.02;;;;;;;25.40;45.61;99189.02;1748338;81;21027;-44
2021/06/16 03:37:45;;;;;;;3.90;2.95;;;;;;;25.38;45.58;99190.52;1693363;83;21107;-44
2021/06/16 03:40:13;;;;;;;3.70;2.90;;;;;;;25.40;45.56;99195.75;1679795;82;21464;-46
2021/06/16 03:42:40;;;;;;;3.83;2.75;;;;;;;25.43;45.52;99194.10;1703467;83;21564;-46
2021/06/16 03:45:09;;;;;;;3.27;3.00;;;;;;;25.44;45.53;99193.11;1747413;81;21651;-47
2021/06/16 03:47:40;;;;;;;5.80;3.20;;;;;;;25.49;45.46;99193.48;1741651;81;21650;-48
2021/06/16 03:50:08;;;;;;;4.25;3.25;;;;;;;25.52;45.32;99203.95;1766766;80;21106;-46
2021/06/16 03:52:37;;;;;;;5.87;3.25;;;;;;;25.47;45.17;99200.88;1684383;83;21066;-45
2021/06/16 03:55:05;;;;;;;8.30;2.77;;;;;;;25.39;45.41;99207.55;1742391;81;21014;-47
2021/06/16 03:57:32;;;;;;;3.80;2.87;;;;;;;25.37;45.53;99214.95;1754101;81;21051;-46
2021/06/16 04:00:03;;;;;;;5.12;3.15;;;;;;;25.34;45.45;99209.35;1750891;81;21121;-47
2021/06/16 04:02:31;;;;;;;4.87;3.30;;;;;;;25.31;45.44;99216.39;1750875;81;22285;-47
2021/06/16 04:05:04;;;;;;;5.47;3.52;;;;;;;25.29;45.58;99214.36;1750822;81;21078;-46
2021/06/16 04:07:30;;;;;;;4.35;3.58;;;;;;;25.26;45.55;99219.19;1718720;81;22303;-45
2021/06/16 04:09:57;;;;;;;4.75;3.72;;;;;;;25.11;45.84;99217.02;1697780;82;20994;-46
2021/06/16 04:12:24;;;;;;;4.28;3.25;;;;;;;24.98;46.16;99217.42;1728400;81;21090;-46
2021/06/16 04:14:52;;;;;;;4.92;3.30;;;;;;;24.89;46.14;99219.66;1749875;81;21132;-44
2021/06/16 04:17:21;;;;;;;7.25;3.60;;;;;;;24.78;46.44;99228.81;1713390;82;21550;-45
2021/06/16 04:19:49;;;;;;;3.47;3.25;;;;;;;24.71;46.78;99229.05;1716355;81;21610;-45
2021/06/16 04:22:16;;;;;;;9.28;3.50;;;;;;;24.74;46.60;99231.44;1700579;83;21066;-43
2021/06/16 04:24:43;;;;;;;3.83;3.37;;;;;;;24.82;46.68;99230.19;1694899;83;21092;-46
2021/06/16 04:27:10;;;;;;;5.08;3.22;;;;;;;24.99;46.57;99226.33;1741223;81;21834;-46
2021/06/16 04:29:40;;;;;;;6.70;3.35;;;;;;;25.11;46.08;99225.09;1752796;81;21523;-44
2021/06/16 04:32:07;;;;;;;4.85;3.33;;;;;;;25.17;46.01;99229.04;1748030;81;21520;-46
2021/06/16 04:34:34;;;;;;;3.90;3.40;;;;;;;25.19;45.89;99229.22;1751004;81;21080;-45
2021/06/16 04:37:02;;;;;;;4.40;3.58;;;;;;;25.21;45.85;99239.33;1751508;81;21034;-51
2021/06/16 04:39:28;;;;;;;5.30;3.17;;;;;;;25.22;45.63;99241.03;1744375;81;21565;-46
2021/06/16 04:41:55;;;;;;;3.98;3.30;;;;;;;25.22;45.42;99238.34;1755810;81;21058;-44
2021/06/16 04:44:21;;;;;;;3.92;3.40;;;;;;;25.21;45.44;99243.88;1720985;81;21101;-44
2021/06/16 04:46:49;;;;;;;5.33;3.17;;;;;;;25.24;45.51;99248.12;1749022;81;21544;-48
2021/06/16 04:49:17;;;;;;;7.50;3.27;;;;;;;25.27;45.26;99247.81;1747651;81;21375;-47
2021/06/16 04:51:44;;;;;;;5.53;3.37;;;;;;;25.25;45.31;99243.06;1720735;81;21994;-47
2021/06/16 04:54:11;;;;;;;4.25;2.98;;;;;;;25.28;45.36;99241.44;1753580;81;21027;-45
2021/06/16 04:56:40;;;;;;;6.75;3.22;;;;;;;25.29;45.29;99242.64;1719629;81;21050;-46
2021/06/16 04:59:09;;;;;;;3.08;2.87;;;;;;;25.34;45.26;99237.63;1752518;81;21030;-44
2021/06/16 05:01:36;;;;;;;5.20;3.33;;;;;;;25.41;45.31;99243.24;1715021;83;21097;-44
2021/06/16 05:04:03;;;;;;;5.30;3.15;;;;;;;25.51;45.27;99237.77;1721455;81;21038;-45
2021/06/16 05:06:29;;;;;;;3.83;3.33;;;;;;;25.62;45.00;99238.02;1742167;81;21052;-44
2021/06/16 05:08:57;;;;;;;4.35;3.33;;;;;;;25.68;44.79;99240.09;1745334;81;21901;-48
2021/06/16 05:11:24;;;;;;;5.15;3.20;;;;;;;25.74;44.67;99238.97;1743967;81;21045;-46
2021/06/16 05:13:50;;;;;;;6.58;3.50;;;;;;;25.78;44.73;99238.14;1751396;81;21069;-45
2021/06/16 05:16:17;;;;;;;4.60;3.15;;;;;;;25.81;44.56;99248.61;1752453;81;21753;-44
2021/06/16 05:18:46;;;;;;;5.62;3.12;;;;;;;25.84;44.58;99244.73;1715706;81;21421;-45
2021/06/16 05:21:13;;;;;;;8.45;3.42;;;;;;;25.87;44.48;99251.16;1750784;81;21207;-43
2021/06/16 05:23:40;;;;;;;6.08;3.08;;;;;;;25.92;44.54;99252.88;1749718;81;21082;-45
2021/06/16 05:26:06;;;;;;;3.70;3.25;;;;;;;25.98;44.40;99259.55;1720601;81;21090;-47
2021/06/16 05:28:33;;;;;;;4.53;3.42;;;;;;;25.97;44.54;99261.88;1693527;83;21227;-47
2021/06/16 05:31:00;;;;;;;3.85;3.10;;;;;;;25.98;44.57;99259.55;1693481;84;21048;-47
2021/06/16 05:33:26;;;;;;;4.05;2.92;;;;;;;26.03;44.47;99256.70;1745122;81;21030;-45
2021/06/16 05:35:53;;;;;;;9.08;3.37;;;;;;;26.09;44.40;99261.95;1750772;81;21029;-45
2021/06/16 05:38:19;;;;;;;4.60;3.25;;;;;;;26.11;44.41;99258.62;1714289;83;21584;-45
2021/06/16 05:40:46;;;;;;;5.03;3.45;;;;;;;26.12;44.23;99259.78;1720757;82;22082;-44
2021/06/16 05:43:13;;;;;;;10.35;3.92;;;;;;;26.01;44.45;99267.28;1716474;83;21042;-45
2021/06/16 05:45:41;;;;;;;6.35;3.42;;;;;;;25.90;44.63;99266.52;1750269;81;21131;-45
2021/06/16 05:48:09;;;;;;;6.78;3.08;;;;;;;25.90;44.78;99271.91;1721478;81;21690;-45
2021/06/16 05:50:35;;;;;;;9.53;3.30;;;;;;;25.93;44.65;99282.38;1752512;81;21671;-45
2021/06/16 05:53:03;;;;;;;3.42;2.95;;;;;;;25.97;44.63;99271.31;1717615;81;21260;-48
2021/06/16 05:55:31;;;;;;;3.52;3.17;;;;;;;26.03;44.53;99273.39;1710790;83;21457;-44
2021/06/16 05:57:57;;;;;;;5.22;3.17;;;;;;;26.06;44.35;99271.22;1748187;81;21563;-44
2021/06/16 06:00:25;;;;;;;10.70;3.52;;;;;;;26.11;44.38;99270.23;1745403;81;21544;-45
2021/06/16 06:02:52;;;;;;;2.90;2.70;;;;;;;26.15;44.33;99274.80;1664457;84;21567;-44
2021/06/16 06:05:19;;;;;;;6.00;3.30;;;;;;;26.17;44.18;99275.48;1693659;83;21841;-45
2021/06/16 06:07:46;;;;;;;7.37;3.25;;;;;;;26.19;44.21;99273.98;1747344;81;20966;-44
2021/06/16 06:10:13;;;;;;;3.40;3.10;;;;;;;26.22;44.22;99272.31;1750107;81;21024;-47
2021/06/16 06:12:40;;;;;;;6.15;3.08;;;;;;;26.22;43.97;99278.55;1752976;81;22207;-44
2021/06/16 06:15:09;;;;;;;3.70;2.70;;;;;;;26.22;44.04;99278.55;1742652;81;21078;-45
2021/06/16 06:17:35;;;;;;;5.83;2.98;;;;;;;26.24;43.83;99279.26;1740241;81;21171;-47
2021/06/16 06:20:05;;;;;;;16.15;11.53;;;;;;;26.28;43.67;99277.92;1745488;81;21316;-44
2021/06/16 06:22:32;;;;;;;6.37;5.67;;;;;;;26.34;43.65;99283.16;1728219;81;32594;-45
2021/06/16 06:25:00;;;;;;;8.48;4.60;;;;;;;26.45;43.21;99286.10;1710867;83;21046;-45
2021/06/16 06:27:27;;;;;;;4.60;3.90;;;;;;;26.54;42.96;99289.16;1712010;83;21016;-45
2021/06/16 06:29:53;;;;;;;9.83;3.85;;;;;;;26.62;42.77;99283.81;1743116;81;21112;-44
2021/06/16 06:32:20;;;;;;;6.83;3.70;;;;;;;26.72;42.66;99286.94;1752804;81;21058;-44
2021/06/16 06:34:46;;;;;;;3.25;2.95;;;;;;;26.81;42.50;99288.64;1716184;83;22323;-44
2021/06/16 06:37:14;;;;;;;6.17;2.80;;;;;;;26.89;42.29;99284.62;1737906;81;21037;-43
2021/06/16 06:39:41;;;;;;;5.03;2.33;;;;;;;26.93;41.78;99283.27;1749736;81;21035;-43
2021/06/16 06:42:09;;;;;;;2.58;2.37;;;;;;;26.97;41.29;99284.64;1755473;81;21915;-44
2021/06/16 06:44:37;;;;;;;3.83;2.55;;;;;;;26.96;40.99;99285.64;1720335;81;21034;-45
2021/06/16 06:47:04;;;;;;;7.47;2.52;;;;;;;26.90;41.08;99298.47;1724840;81;21202;-44
2021/06/16 06:49:31;;;;;;;4.37;2.60;;;;;;;26.86;41.11;99298.44;1747799;81;21580;-40
2021/06/16 06:51:58;;;;;;;2.37;2.17;;;;;;;26.87;41.14;99301.49;1730237;81;21078;-40
2021/06/16 06:54:25;;;;;;;2.85;2.35;;;;;;;26.85;41.03;99292.72;1749708;81;21109;-44
2021/06/16 06:56:52;;;;;;;5.30;2.33;;;;;;;26.86;41.03;99289.86;1744783;81;21081;-43
2021/06/16 06:59:19;;;;;;;2.95;2.50;;;;;;;26.87;40.97;99298.79;1709298;83;21106;-44
2021/06/16 07:01:46;;;;;;;3.33;2.40;;;;;;;26.86;40.92;99282.23;1750257;81;21097;-43
2021/06/16 07:04:12;;;;;;;5.08;3.00;;;;;;;26.86;41.14;99288.98;1720400;82;21081;-41
2021/06/16 07:06:39;;;;;;;2.75;2.55;;;;;;;26.86;41.30;99287.16;1697532;84;21264;-47
2021/06/16 07:09:06;;;;;;;8.33;2.60;;;;;;;26.89;41.23;99288.66;1736904;82;21038;-43
2021/06/16 07:11:33;;;;;;;4.35;2.45;;;;;;;26.87;41.56;99289.34;1718175;83;21464;-45
2021/06/16 07:14:00;;;;;;;5.37;2.65;;;;;;;26.82;41.71;99295.73;1679760;83;21054;-44
2021/06/16 07:16:27;;;;;;;4.58;2.50;;;;;;;26.77;41.48;99298.92;1717201;83;21179;-46
2021/06/16 07:18:54;;;;;;;4.33;2.40;;;;;;;26.59;41.16;99301.67;1710132;83;21139;-44
2021/06/16 07:21:21;;;;;;;5.70;2.37;;;;;;;26.48;41.54;99304.16;1691162;83;21058;-44
2021/06/16 07:23:47;;;;;;;3.42;2.17;;;;;;;26.49;41.77;99298.25;1715238;83;21545;-45
2021/06/16 07:26:16;;;;;;;5.20;2.30;;;;;;;26.53;41.83;99299.64;1714362;83;21598;-43
2021/06/16 07:28:43;;;;;;;5.10;2.75;;;;;;;26.56;41.67;99301.15;1714721;83;21111;-44
2021/06/16 07:31:10;;;;;;;4.70;2.47;;;;;;;26.60;41.56;99306.07;1710498;83;21260;-46
2021/06/16 07:33:37;;;;;;;5.55;2.30;;;;;;;26.64;41.93;99312.85;1701682;83;21086;-44
2021/06/16 07:36:06;;;;;;;7.95;2.55;;;;;;;26.66;42.11;99309.99;1688623;83;21114;-45
2021/06/16 07:38:32;;;;;;;5.70;2.17;;;;;;;26.71;42.17;99312.22;1712263;83;21124;-44
2021/06/16 07:41:00;;;;;;;5.17;2.45;;;;;;;26.75;42.05;99312.22;1715807;82;21045;-45
2021/06/16 07:43:27;;;;;;;7.97;2.75;;;;;;;26.79;41.83;99314.95;1689301;83;21704;-45
2021/06/16 07:45:53;;;;;;;6.58;2.40;;;;;;;26.82;41.71;99315.47;1718533;83;21511;-45
2021/06/16 07:48:20;;;;;;;2.30;2.10;;;;;;;26.85;41.75;99317.02;1710667;83;21090;-43
2021/06/16 07:50:47;;;;;;;7.40;2.40;;;;;;;26.86;41.68;99314.16;1673106;83;21121;-46
2021/06/16 07:53:14;;;;;;;4.35;2.15;;;;;;;26.89;41.77;99310.27;1710871;83;21121;-43
2021/06/16 07:55:41;;;;;;;4.12;2.25;;;;;;;26.93;41.75;99311.61;1709579;83;21149;-45
2021/06/16 07:58:08;;;;;;;3.37;2.62;;;;;;;26.96;41.69;99308.59;1715740;82;21624;-45
2021/06/16 08:00:35;;;;;;;4.53;2.40;;;;;;;27.00;41.74;99309.97;1717939;83;21077;-43
2021/06/16 08:03:02;;;;;;;8.08;3.67;;;;;;;27.02;41.53;99310.64;1716213;82;21037;-46
2021/06/16 08:05:29;;;;;;;8.58;3.25;;;;;;;27.04;41.24;99316.72;1724369;82;21608;-43
2021/06/16 08:07:55;;;;;;;5.97;2.77;;;;;;;27.06;40.77;99310.64;1691717;82;21686;-43
2021/06/16 08:10:22;;;;;;;3.52;2.45;;;;;;;27.08;40.72;99312.34;1739911;82;21487;-45
2021/06/16 08:12:49;;;;;;;6.40;2.20;;;;;;;27.11;40.86;99311.51;1692849;82;21111;-43
2021/06/16 08:15:17;;;;;;;2.77;1.90;;;;;;;27.14;41.10;99313.05;1736494;82;21122;-43
2021/06/16 08:17:44;;;;;;;2.58;2.17;;;;;;;27.17;40.89;99327.06;1715041;82;21547;-44
2021/06/16 08:20:12;;;;;;;3.25;1.75;;;;;;;27.20;40.22;99313.72;1697567;82;21145;-44
2021/06/16 08:22:38;;;;;;;4.67;1.85;;;;;;;27.13;39.68;99318.09;1684958;84;21043;-44
2021/06/16 08:25:10;;;;;;;3.25;2.00;;;;;;;27.02;39.93;99316.05;1723844;82;21590;-45
2021/06/16 08:27:34;;;;;;;4.72;1.92;;;;;;;26.98;40.21;99320.58;1711370;82;21090;-45
2021/06/16 08:30:01;;;;;;;3.02;1.67;;;;;;;26.98;40.24;99326.84;1712284;82;21031;-45
2021/06/16 08:32:28;;;;;;;3.67;1.82;;;;;;;27.02;40.06;99313.86;1712007;82;21129;-45
2021/06/16 08:34:55;;;;;;;5.78;1.90;;;;;;;27.04;39.57;99323.47;1730470;82;21561;-43
2021/06/16 08:37:22;;;;;;;1.87;1.60;;;;;;;27.06;38.93;99332.77;1712227;82;20994;-45
2021/06/16 08:39:49;;;;;;;5.30;1.60;;;;;;;27.07;38.55;99334.47;1735770;82;21189;-44
2021/06/16 08:42:15;;;;;;;5.67;1.60;;;;;;;27.08;38.31;99333.95;1718525;82;21051;-43
2021/06/16 08:44:42;;;;;;;5.90;1.45;;;;;;;27.11;38.10;99328.23;1731685;82;21175;-44
2021/06/16 08:47:09;;;;;;;1.42;1.30;;;;;;;27.11;38.01;99334.98;1722586;82;21117;-44
2021/06/16 08:49:37;;;;;;;1.92;1.52;;;;;;;27.12;38.13;99344.75;1739970;82;21059;-44
2021/06/16 08:52:06;;;;;;;4.62;3.62;;;;;;;27.15;38.23;99343.95;1699518;84;21590;-44
2021/06/16 08:54:32;;;;;;;2.77;2.58;;;;;;;27.17;38.22;99332.98;1712289;82;21068;-43
2021/06/16 08:57:00;;;;;;;10.68;2.35;;;;;;;27.19;38.12;99326.91;1717960;82;21112;-44
2021/06/16 08:59:27;;;;;;;6.33;4.28;;;;;;;27.20;37.98;99335.33;1739373;82;21038;-42
2021/06/16 09:01:54;;;;;;;4.90;3.20;;;;;;;27.21;37.84;99331.63;1708250;82;21062;-43
2021/06/16 09:04:51;;;;;;;6.58;2.42;;;;;;;27.22;37.73;99330.11;1735305;81;21834;-42
2021/06/16 09:07:22;;;;;;;4.33;1.82;;;;;;;27.24;37.65;99338.05;1726690;81;21919;-43
2021/06/16 09:09:52;;;;;;;4.10;1.65;;;;;;;27.24;37.27;99327.25;1731799;81;21906;-43
2021/06/16 09:12:33;;;;;;;3.40;1.17;;;;;;;27.25;37.04;99338.37;1711300;82;21136;-42
2021/06/16 09:15:00;;;;;;;1.52;1.27;;;;;;;27.24;36.28;99338.89;1739552;81;21733;-43
2021/06/16 09:17:27;;;;;;;6.05;0.93;;;;;;;27.24;35.65;99345.64;1711803;82;21503;-44
2021/06/16 09:19:58;;;;;;;1.12;0.90;;;;;;;27.24;35.35;99336.70;1723059;82;21177;-43
2021/06/16 09:22:33;;;;;;;2.75;1.10;;;;;;;27.26;35.35;99348.18;1694080;82;21081;-45
2021/06/16 09:25:06;;;;;;;7.20;1.10;;;;;;;27.27;35.39;99332.33;1716196;81;21059;-43
2021/06/16 09:27:46;;;;;;;2.33;0.98;;;;;;;27.30;35.46;99332.00;1748073;81;21037;-44
2021/06/16 09:30:28;;;;;;;12.10;3.10;;;;;;;27.35;35.62;99337.78;1727050;81;21105;-45
2021/06/16 09:32:58;;;;;;;2.55;1.77;;;;;;;27.38;35.67;99333.89;1716829;81;21034;-45
2021/06/16 09:35:38;;;;;;;17.48;13.05;;;;;;;27.40;35.65;99334.08;1716931;81;21050;-43
2021/06/16 09:38:11;;;;;;;4.65;3.05;;;;;;;27.41;35.47;99342.50;1687879;83;21027;-39
2021/06/16 09:40:43;;;;;;;3.77;2.40;;;;;;;27.42;35.03;99337.45;1717300;82;21475;-42
2021/06/16 09:43:14;;;;;;;4.53;1.90;;;;;;;27.43;35.20;99336.94;1722974;82;21556;-42
2021/06/16 09:45:44;;;;;;;1.90;1.30;;;;;;;27.47;35.39;99338.80;1723643;82;21051;-43
2021/06/16 09:48:34;;;;;;;1.45;1.30;;;;;;;27.48;35.47;99340.50;1716364;82;21145;-42
2021/06/16 09:51:27;;;;;;;3.85;1.20;;;;;;;27.49;35.58;99340.81;1766092;80;21019;-41
2021/06/16 09:54:19;;;;;;;3.10;1.05;;;;;;;27.51;35.69;99336.95;1717957;83;21370;-42
2021/06/16 09:56:53;;;;;;;1.95;1.10;;;;;;;27.52;35.66;99337.30;1718718;83;21569;-42
2021/06/16 09:59:44;;;;;;;2.02;1.10;;;;;;;27.54;35.89;99338.48;1754147;81;21041;-43
2021/06/16 10:02:30;;;;;;;2.37;1.02;;;;;;;27.55;35.88;99332.89;1744958;81;21958;-42
2021/06/16 10:05:00;;;;;;;1.07;0.98;;;;;;;27.57;35.78;99327.32;1685749;81;21647;-42
2021/06/16 10:07:31;;;;;;;2.75;1.20;;;;;;;27.61;35.89;99334.09;1689671;82;21059;-42
2021/06/16 10:10:03;;;;;;;2.00;0.95;;;;;;;27.62;35.94;99347.93;1719484;82;21460;-43
2021/06/16 10:12:36;;;;;;;2.47;0.80;;;;;;;27.65;35.42;99330.03;1745806;80;21105;-42
2021/06/16 10:15:08;;;;;;;3.08;0.85;;;;;;;27.67;35.22;99334.79;1694795;82;21256;-43
2021/06/16 10:17:35;;;;;;;2.52;1.10;;;;;;;27.67;34.85;99341.55;1688762;84;21118;-43
2021/06/16 10:20:05;;;;;;;2.02;1.00;;;;;;;27.65;34.50;99326.50;1715635;82;21328;-44
2021/06/16 10:22:31;;;;;;;1.15;0.95;;;;;;;27.60;34.60;99317.53;1719554;82;21572;-39
2021/06/16 10:24:58;;;;;;;2.20;1.05;;;;;;;27.55;34.68;99303.16;1710377;82;21106;-39
2021/06/16 10:27:32;;;;;;;3.90;0.90;;;;;;;27.56;34.95;99312.14;1716205;82;21151;-40
2021/06/16 10:30:07;;;;;;;5.17;1.10;;;;;;;27.57;35.31;99313.81;1714239;82;21525;-39
2021/06/16 10:32:44;;;;;;;6.17;1.20;;;;;;;27.58;35.24;99306.88;1697845;82;21073;-40
2021/06/16 10:35:12;;;;;;;8.85;1.20;;;;;;;27.63;35.36;99317.20;1697889;82;21054;-39
2021/06/16 10:37:42;;;;;;;3.37;0.90;;;;;;;27.66;35.37;99310.11;1683727;82;21074;-40
2021/06/16 10:40:21;;;;;;;3.83;1.10;;;;;;;27.71;35.37;99318.56;1700841;82;21129;-43
2021/06/16 10:43:09;;;;;;;7.28;1.20;;;;;;;27.74;35.42;99307.41;1699193;82;21019;-44
2021/06/16 10:45:40;;;;;;;6.55;1.10;;;;;;;27.77;35.32;99311.14;1699605;82;21010;-43
2021/06/16 10:48:09;;;;;;;2.40;0.93;;;;;;;27.80;35.09;99312.64;1699938;82;21023;-43
2021/06/16 10:50:59;;;;;;;2.42;0.90;;;;;;;27.81;35.06;99315.70;1697900;82;21018;-44
2021/06/16 10:53:25;;;;;;;1.22;1.00;;;;;;;27.84;34.83;99318.55;1700230;82;21733;-43
2021/06/16 10:55:58;;;;;;;3.47;1.27;;;;;;;27.85;34.81;99310.79;1699888;82;20901;-43
2021/06/16 10:58:26;;;;;;;7.35;0.90;;;;;;;27.89;34.87;99315.70;1698907;82;21058;-43
2021/06/16 11:01:16;;;;;;;3.47;1.00;;;;;;;27.92;34.76;99315.84;1699863;82;21561;-43
2021/06/16 11:04:00;;;;;;;2.62;0.90;;;;;;;27.94;34.59;99317.41;1700881;82;20968;-43
2021/06/16 11:06:36;;;;;;;2.00;0.90;;;;;;;27.98;34.44;99319.27;1710877;82;21186;-43
2021/06/16 11:09:10;;;;;;;2.15;0.80;;;;;;;28.01;34.38;99322.98;1691580;83;21461;-43
2021/06/16 11:12:01;;;;;;;3.05;0.82;;;;;;;28.04;34.16;99323.13;1734733;81;25006;-43
2021/06/16 11:14:39;;;;;;;2.42;0.88;;;;;;;28.06;33.94;99316.55;1699486;82;20991;-44
2021/06/16 11:17:37;;;;;;;2.35;0.90;;;;;;;28.09;33.86;99310.81;1697177;82;21109;-43
2021/06/16 11:20:10;;;;;;;4.67;0.80;;;;;;;28.12;33.92;99318.55;1722736;81;22092;-43
2021/06/16 11:22:47;;;;;;;6.23;0.97;;;;;;;28.14;33.60;99321.95;1724962;81;20970;-43
2021/06/16 11:25:28;;;;;;;3.90;1.95;;;;;;;28.16;33.65;99326.68;1725167;81;21063;-43
2021/06/16 11:28:12;;;;;;;3.47;1.45;;;;;;;28.16;33.56;99324.49;1726179;81;21022;-43
2021/06/16 11:30:58;;;;;;;4.80;1.50;;;;;;;28.19;33.46;99315.17;1725404;81;21029;-43
2021/06/16 11:33:32;;;;;;;3.80;2.20;;;;;;;28.21;33.28;99317.19;1736061;81;21094;-42
2021/06/16 11:36:17;;;;;;;3.22;1.75;;;;;;;28.24;33.19;99310.09;1735265;81;20989;-43
2021/06/16 11:39:02;;;;;;;17.90;2.37;;;;;;;28.26;33.03;99326.98;1726565;81;21596;-44
2021/06/16 11:41:28;;;;;;;5.22;2.17;;;;;;;28.27;32.69;99305.69;1724514;81;21036;-45
2021/06/16 11:44:01;;;;;;;7.70;1.42;;;;;;;28.28;32.64;99308.74;1735692;81;21650;-45
2021/06/16 11:46:31;;;;;;;5.87;1.90;;;;;;;28.30;32.74;99316.17;1710565;81;21126;-45